Pagrindinis puslapis
METAR-TAF:

METAR-TAF

Oro uostai :

Šiovdė, Švedija

platuma: 58-27N, ilguma: 013-58E, Aukštis: 98 m

Dabartinis oras

Ataskaita buvo paskelbta 23 minutes, ne 10:20 UTC
Vėjas 10 kt iš Šiaurės Rytų, svyruoja nuo Šiaurės/Šiaurės Rytų ir Rytų
Temperatūra 20°C
Drėgmė 32%
Slėgis 1030 hPa
Matomumas 10 km arba daugiau

METAR: ESGR 311020Z AUTO 05010KT 030V100 9999 NCD 20/03 Q1030

Laikas: 12:43 (10:43 UTC)


TAF: trūkstamas

Orai ataskaitas ir orų prognozės (METAR, TAF).

turimą stotys yra geltonos ir raudonos taškus žemėlapyje.

Perkelti pele per norėdami pamatyti stoties vardą.

Tada spustelėkite, norėdami matyti oro stebėjimo ir prognozės.

Norėdami pakeisti žemėlapį: spustelėkite ant žalios mygtukų su juodo kryžiaus žemyn,; žalią mygtuką su brūkšneliu, jei norite nutolinti; arba žalių rodyklių gretimoms žemėlapius.


METAR-TAF: